createdAt,value
2017-09-27T00:01:06.232Z,13.30
2017-09-27T00:03:36.944Z,15.48
2017-09-27T00:06:06.231Z,13.68
2017-09-27T00:08:37.109Z,13.77
2017-09-27T00:11:08.166Z,11.90
2017-09-27T00:13:37.420Z,13.85
2017-09-27T00:16:06.667Z,13.13
2017-09-27T00:18:35.967Z,14.43
2017-09-27T00:21:05.458Z,14.95
2017-09-27T00:23:34.668Z,13.60
2017-09-27T00:26:03.971Z,13.20
2017-09-27T00:28:33.312Z,14.13
2017-09-27T00:31:02.551Z,14.10
2017-09-27T00:33:32.600Z,13.62
2017-09-27T00:36:01.856Z,14.23
2017-09-27T00:38:31.100Z,13.65
2017-09-27T00:41:00.388Z,13.45
2017-09-27T00:43:29.667Z,14.13
2017-09-27T00:45:59.715Z,13.85
2017-09-27T00:48:28.968Z,15.57
2017-09-27T00:50:58.225Z,14.60
2017-09-27T00:53:27.518Z,15.52
2017-09-27T00:55:56.771Z,15.70
2017-09-27T00:58:26.040Z,16.40
2017-09-27T01:01:19.575Z,15.57
2017-09-27T01:03:48.829Z,14.93
2017-09-27T01:06:18.077Z,17.05
2017-09-27T01:08:47.366Z,15.25
2017-09-27T01:11:16.624Z,15.57
2017-09-27T01:13:45.867Z,16.02
2017-09-27T01:16:15.146Z,16.12
2017-09-27T01:18:44.393Z,17.42
2017-09-27T01:21:14.422Z,15.95
2017-09-27T01:23:44.467Z,16.05
2017-09-27T01:26:14.483Z,17.85
2017-09-27T01:28:43.775Z,16.60
2017-09-27T01:31:13.056Z,17.42
2017-09-27T01:33:43.106Z,15.65
2017-09-27T01:36:12.368Z,15.35
2017-09-27T01:38:42.586Z,15.55
2017-09-27T01:41:11.832Z,16.30
2017-09-27T01:43:41.087Z,16.92
2017-09-27T01:46:11.300Z,17.52
2017-09-27T01:48:40.555Z,17.08
2017-09-27T01:51:09.804Z,16.05
2017-09-27T01:53:39.161Z,15.13
2017-09-27T01:56:08.407Z,15.10
2017-09-27T01:58:38.626Z,15.57
2017-09-27T02:01:07.884Z,17.20
2017-09-27T02:03:37.134Z,15.30
2017-09-27T02:06:07.211Z,15.68
2017-09-27T02:08:36.462Z,16.02
2017-09-27T02:11:06.891Z,13.80
2017-09-27T02:13:36.893Z,14.57
2017-09-27T02:16:06.963Z,14.90
2017-09-27T02:18:36.218Z,14.27
2017-09-27T02:21:06.644Z,13.73
2017-09-27T02:23:36.664Z,12.77
2017-09-27T02:26:06.868Z,14.87
2017-09-27T02:28:36.114Z,14.38
2017-09-27T02:31:05.607Z,14.50
2017-09-27T02:33:34.858Z,15.15
2017-09-27T02:36:04.100Z,15.55
2017-09-27T02:38:33.355Z,14.43
2017-09-27T02:41:02.643Z,15.05
2017-09-27T02:43:31.875Z,14.00
2017-09-27T02:46:01.134Z,13.73
2017-09-27T02:48:30.408Z,13.73
2017-09-27T02:50:59.658Z,13.13
2017-09-27T02:53:28.910Z,13.68
2017-09-27T02:55:58.200Z,13.48
2017-09-27T02:58:27.455Z,13.38
2017-09-27T03:00:56.711Z,13.02
2017-09-27T03:03:26.007Z,13.77
2017-09-27T03:05:55.260Z,13.02
2017-09-27T03:08:24.515Z,12.70
2017-09-27T03:10:53.809Z,12.57
2017-09-27T03:13:23.060Z,12.65
2017-09-27T03:15:52.311Z,11.68
2017-09-27T03:18:21.604Z,11.80
2017-09-27T03:20:50.851Z,13.35
2017-09-27T03:23:20.099Z,13.25
2017-09-27T03:25:50.154Z,12.57
2017-09-27T03:28:19.409Z,12.60
2017-09-27T03:30:49.628Z,12.93
2017-09-27T03:33:19.643Z,13.95
2017-09-27T03:35:49.678Z,13.05
2017-09-27T03:38:19.727Z,14.27
2017-09-27T03:40:48.979Z,13.73
2017-09-27T03:43:19.040Z,14.35
2017-09-27T03:45:48.348Z,14.15
2017-09-27T03:50:57.400Z,14.40
2017-09-27T03:53:26.655Z,15.13
2017-09-27T03:55:56.693Z,14.75
2017-09-27T03:58:25.970Z,13.95
2017-09-27T04:00:55.985Z,14.20
2017-09-27T04:03:26.039Z,15.40
2017-09-27T04:05:55.296Z,18.20
2017-09-27T04:08:24.543Z,17.92
2017-09-27T04:10:53.972Z,17.85
2017-09-27T04:13:23.218Z,17.50
2017-09-27T04:15:52.494Z,18.00
2017-09-27T04:18:21.793Z,17.60
2017-09-27T04:20:51.040Z,18.00
2017-09-27T04:23:20.291Z,20.73
2017-09-27T04:25:49.591Z,20.33
2017-09-27T04:28:18.859Z,23.62
2017-09-27T04:30:48.123Z,24.70
2017-09-27T04:33:17.399Z,22.67
2017-09-27T04:35:46.639Z,24.25
2017-09-27T04:38:17.043Z,24.87
2017-09-27T04:40:47.053Z,36.25
2017-09-27T04:43:17.101Z,37.58
2017-09-27T04:45:46.351Z,31.73
2017-09-27T04:48:15.598Z,28.08
2017-09-27T04:50:45.650Z,26.62
2017-09-27T04:53:14.911Z,25.33
2017-09-27T04:55:44.163Z,24.30
2017-09-27T04:58:13.439Z,25.05
2017-09-27T05:00:42.695Z,22.98
2017-09-27T05:03:12.990Z,22.35
2017-09-27T05:05:42.242Z,25.10
2017-09-27T05:08:11.514Z,24.63
2017-09-27T05:10:41.547Z,23.50
2017-09-27T05:13:10.816Z,22.50
2017-09-27T05:15:40.061Z,24.45
2017-09-27T05:18:09.333Z,23.58
2017-09-27T05:20:39.343Z,25.25
2017-09-27T05:23:08.623Z,23.75
2017-09-27T05:25:37.907Z,23.77
2017-09-27T05:28:07.956Z,21.75
2017-09-27T05:30:37.228Z,21.65
2017-09-27T05:33:06.479Z,22.65
2017-09-27T05:35:36.720Z,23.27
2017-09-27T05:38:06.008Z,22.27
2017-09-27T05:40:35.263Z,21.50
2017-09-27T05:43:04.683Z,22.45
2017-09-27T05:45:33.949Z,20.92
2017-09-27T05:48:03.191Z,23.73
2017-09-27T05:50:33.399Z,24.87
2017-09-27T05:53:02.650Z,23.20
2017-09-27T05:55:31.904Z,22.87
2017-09-27T05:58:01.339Z,21.77
2017-09-27T06:00:30.596Z,22.30
2017-09-27T06:02:59.840Z,21.70
2017-09-27T06:05:29.200Z,21.27
2017-09-27T06:07:58.501Z,20.98
2017-09-27T06:10:27.748Z,21.25
2017-09-27T06:12:57.024Z,20.40
2017-09-27T06:15:27.055Z,24.55
2017-09-27T06:17:57.181Z,22.90
2017-09-27T06:20:26.431Z,19.45
2017-09-27T06:22:55.683Z,24.52
2017-09-27T06:25:25.184Z,22.08
2017-09-27T06:27:55.195Z,23.70
2017-09-27T06:30:25.251Z,22.25
2017-09-27T06:32:54.544Z,21.62
2017-09-27T06:35:23.794Z,21.10
2017-09-27T06:37:53.039Z,22.05
2017-09-27T06:40:22.499Z,21.00
2017-09-27T06:42:51.744Z,23.08
2017-09-27T06:45:21.004Z,22.87
2017-09-27T06:47:50.283Z,21.62
2017-09-27T06:50:19.531Z,22.13
2017-09-27T06:52:48.834Z,23.17
2017-09-27T06:55:18.129Z,21.25
2017-09-27T06:57:47.374Z,22.45
2017-09-27T07:00:16.628Z,23.62
2017-09-27T07:02:45.929Z,21.70
2017-09-27T07:05:15.179Z,21.60
2017-09-27T07:07:44.431Z,22.90
2017-09-27T07:10:14.078Z,23.85
2017-09-27T07:12:44.142Z,22.50
2017-09-27T07:15:14.363Z,23.92
2017-09-27T07:17:44.408Z,23.95
2017-09-27T07:20:13.687Z,21.15
2017-09-27T07:22:43.729Z,23.45
2017-09-27T07:25:12.987Z,24.95
2017-09-27T07:27:42.232Z,24.40
2017-09-27T07:30:11.607Z,24.87
2017-09-27T07:32:41.627Z,23.85
2017-09-27T07:35:11.069Z,24.65
2017-09-27T07:37:40.332Z,25.48
2017-09-27T07:40:09.592Z,26.55
2017-09-27T07:42:39.005Z,25.23
2017-09-27T07:45:08.258Z,26.02
2017-09-27T07:47:37.539Z,24.55
2017-09-27T07:50:07.747Z,23.67
2017-09-27T07:52:37.812Z,25.90
2017-09-27T07:55:07.149Z,26.92
2017-09-27T07:57:36.409Z,24.70
2017-09-27T08:00:06.601Z,26.52
2017-09-27T08:02:35.843Z,27.02
2017-09-27T08:05:05.096Z,25.35
2017-09-27T08:07:35.197Z,27.80
2017-09-27T08:10:04.494Z,27.37
2017-09-27T08:12:33.770Z,25.65
2017-09-27T08:15:03.063Z,25.65
2017-09-27T08:17:32.313Z,25.02
2017-09-27T08:20:02.441Z,26.17
2017-09-27T08:22:31.699Z,25.67
2017-09-27T08:25:01.850Z,25.75
2017-09-27T08:27:31.897Z,24.60
2017-09-27T08:30:01.149Z,26.12
2017-09-27T08:32:30.393Z,24.45
2017-09-27T08:34:59.673Z,27.30
2017-09-27T08:37:28.972Z,26.10
2017-09-27T08:39:59.008Z,30.33
2017-09-27T08:42:28.299Z,28.27
2017-09-27T08:44:58.312Z,29.17
2017-09-27T08:47:28.563Z,27.58
2017-09-27T08:49:58.576Z,27.37
2017-09-27T08:52:27.875Z,29.98
2017-09-27T08:54:57.896Z,29.92
2017-09-27T08:57:27.323Z,29.12
2017-09-27T08:59:56.615Z,29.37
2017-09-27T09:02:25.863Z,29.92
2017-09-27T09:04:55.891Z,28.38
2017-09-27T09:07:25.918Z,27.33
2017-09-27T09:09:55.986Z,29.73
2017-09-27T09:12:25.203Z,27.67
2017-09-27T09:14:54.603Z,27.02
2017-09-27T09:17:23.892Z,27.55
2017-09-27T09:19:53.152Z,29.55
2017-09-27T09:22:22.456Z,26.95
2017-09-27T09:24:52.655Z,28.12
2017-09-27T09:27:21.968Z,28.52
2017-09-27T09:29:51.416Z,30.70
2017-09-27T09:32:21.488Z,27.65
2017-09-27T09:34:50.735Z,27.15
2017-09-27T09:37:20.007Z,27.20
2017-09-27T09:39:49.280Z,25.92
2017-09-27T09:42:20.108Z,27.15
2017-09-27T09:44:50.154Z,27.80
2017-09-27T09:47:19.415Z,28.50
2017-09-27T09:49:48.675Z,26.85
2017-09-27T09:52:18.111Z,28.87
2017-09-27T09:54:47.412Z,26.00
2017-09-27T09:57:16.666Z,27.02
2017-09-27T09:59:45.932Z,24.73
2017-09-27T10:02:15.183Z,25.83
2017-09-27T10:04:44.497Z,25.70
2017-09-27T10:07:13.812Z,24.63
2017-09-27T10:09:43.036Z,24.80
2017-09-27T10:12:12.307Z,23.00
2017-09-27T10:14:41.559Z,24.70
2017-09-27T10:17:10.807Z,23.98
2017-09-27T10:19:40.220Z,22.42
2017-09-27T10:22:13.897Z,24.65
2017-09-27T10:27:37.801Z,22.17
2017-09-27T10:30:08.968Z,20.60
2017-09-27T10:32:38.175Z,24.73
2017-09-27T10:35:08.203Z,26.02
2017-09-27T10:37:38.004Z,21.15
2017-09-27T10:40:07.108Z,20.65
2017-09-27T10:42:37.128Z,19.95
2017-09-27T10:45:07.515Z,21.60
2017-09-27T10:47:36.812Z,20.50
2017-09-27T10:50:06.060Z,20.50
2017-09-27T10:52:36.209Z,17.90
2017-09-27T10:55:06.191Z,18.10
2017-09-27T10:57:36.213Z,20.58
2017-09-27T11:00:07.043Z,18.80
2017-09-27T11:02:37.106Z,20.25
2017-09-27T11:05:07.132Z,18.00
2017-09-27T11:07:36.404Z,18.33
2017-09-27T11:10:05.679Z,17.05
2017-09-27T11:12:35.703Z,16.90
2017-09-27T11:15:05.744Z,18.02
2017-09-27T11:17:35.007Z,17.20
2017-09-27T11:20:04.324Z,16.37
2017-09-27T11:22:35.462Z,16.37
2017-09-27T11:25:05.484Z,15.57
2017-09-27T11:27:34.925Z,15.30
2017-09-27T11:30:04.180Z,16.40
2017-09-27T11:32:34.248Z,18.23
2017-09-27T11:35:04.399Z,18.67
2017-09-27T11:37:33.651Z,17.25
2017-09-27T11:40:02.904Z,17.23
2017-09-27T11:42:32.171Z,18.27
2017-09-27T11:45:01.435Z,16.92
2017-09-27T11:47:30.696Z,15.95
2017-09-27T11:49:59.985Z,17.30
2017-09-27T11:52:29.214Z,16.65
2017-09-27T11:54:59.261Z,16.05
2017-09-27T11:57:28.547Z,17.58
2017-09-27T11:59:58.614Z,15.80
2017-09-27T12:02:27.880Z,16.70
2017-09-27T12:04:57.147Z,15.63
2017-09-27T12:07:26.393Z,15.00
2017-09-27T12:09:55.823Z,14.65
2017-09-27T12:12:25.072Z,17.02
2017-09-27T12:14:55.127Z,16.85
2017-09-27T12:17:24.379Z,15.57
2017-09-27T12:19:54.408Z,15.13
2017-09-27T12:22:24.445Z,15.48
2017-09-27T12:24:53.717Z,16.35
2017-09-27T12:27:22.960Z,13.98
2017-09-27T12:29:52.376Z,16.58
2017-09-27T12:32:21.779Z,16.30
2017-09-27T12:34:51.058Z,14.70
2017-09-27T12:37:20.982Z,17.17
2017-09-27T12:39:50.320Z,15.85
2017-09-27T12:42:20.339Z,15.75
2017-09-27T12:44:50.607Z,15.40
2017-09-27T12:47:22.014Z,14.82
2017-09-27T12:49:52.152Z,15.23
2017-09-27T12:52:23.779Z,16.75
2017-09-27T12:54:58.642Z,15.18
2017-09-27T12:57:28.048Z,13.27
2017-09-27T12:59:59.478Z,14.75
2017-09-27T13:02:29.906Z,14.40
2017-09-27T13:04:59.307Z,16.23
2017-09-27T13:07:28.564Z,14.80
2017-09-27T13:09:57.816Z,15.52
2017-09-27T13:12:27.244Z,13.77
2017-09-27T13:14:56.504Z,13.82
2017-09-27T13:17:25.744Z,13.05
2017-09-27T13:19:55.099Z,13.90
2017-09-27T13:22:24.669Z,14.45
2017-09-27T13:24:53.943Z,13.70
2017-09-27T13:27:24.818Z,15.60
2017-09-27T13:29:54.804Z,13.32
2017-09-27T13:32:25.353Z,15.38
2017-09-27T13:34:54.619Z,14.10
2017-09-27T13:37:24.775Z,13.38
2017-09-27T13:39:54.037Z,13.32
2017-09-27T13:42:23.282Z,12.95
2017-09-27T13:44:52.554Z,13.43
2017-09-27T13:47:23.444Z,13.30
2017-09-27T13:49:52.715Z,11.98
2017-09-27T13:52:21.995Z,13.43
2017-09-27T13:54:51.253Z,13.15
2017-09-27T13:57:20.531Z,12.05
2017-09-27T13:59:49.747Z,11.93
2017-09-27T14:02:19.807Z,12.75
2017-09-27T14:04:50.774Z,12.30
2017-09-27T14:07:20.816Z,13.20
2017-09-27T14:09:50.065Z,12.52
2017-09-27T14:12:20.091Z,13.55
2017-09-27T14:14:51.784Z,12.57
2017-09-27T14:17:21.023Z,11.07
2017-09-27T14:19:50.283Z,12.25
2017-09-27T14:22:19.552Z,13.13
2017-09-27T14:24:48.816Z,11.80
2017-09-27T14:27:18.055Z,12.43
2017-09-27T14:29:47.352Z,13.85
2017-09-27T14:32:17.923Z,13.23
2017-09-27T14:34:48.236Z,13.00
2017-09-27T14:37:17.533Z,12.37
2017-09-27T14:39:47.287Z,13.30
2017-09-27T14:42:16.599Z,12.18
2017-09-27T14:44:45.803Z,11.82
2017-09-27T14:47:17.572Z,12.30
2017-09-27T14:49:47.588Z,12.35
2017-09-27T14:52:19.184Z,12.00
2017-09-27T14:54:48.483Z,12.45
2017-09-27T14:57:18.577Z,11.25
2017-09-27T14:59:48.679Z,13.13
2017-09-27T15:02:18.693Z,11.50
2017-09-27T15:04:49.544Z,10.65
2017-09-27T15:07:21.508Z,12.75
2017-09-27T15:09:50.927Z,12.55
2017-09-27T15:12:20.184Z,14.40
2017-09-27T15:14:49.445Z,13.25
2017-09-27T15:17:18.714Z,12.52
2017-09-27T15:19:49.036Z,12.15
2017-09-27T15:22:19.049Z,12.50
2017-09-27T15:24:50.300Z,12.27
2017-09-27T15:27:22.116Z,12.15
2017-09-27T15:29:51.422Z,12.15
2017-09-27T15:32:20.679Z,12.55
2017-09-27T15:34:49.927Z,13.20
2017-09-27T15:37:19.218Z,11.45
2017-09-27T15:39:48.486Z,11.15
2017-09-27T15:42:17.772Z,11.70
2017-09-27T15:44:47.229Z,11.23
2017-09-27T15:47:16.518Z,10.80
2017-09-27T15:49:45.763Z,10.73
2017-09-27T15:52:15.027Z,10.38
2017-09-27T15:54:44.283Z,11.43
2017-09-27T15:57:13.705Z,12.57
2017-09-27T15:59:43.724Z,10.13
2017-09-27T16:02:13.815Z,9.70
2017-09-27T16:04:43.100Z,10.85
2017-09-27T16:07:12.345Z,12.43
2017-09-27T16:09:42.419Z,11.18
2017-09-27T16:12:11.656Z,9.63
2017-09-27T16:14:41.847Z,9.98
2017-09-27T16:17:11.115Z,12.07
2017-09-27T16:19:40.367Z,10.75
2017-09-27T16:22:09.631Z,11.57
2017-09-27T16:24:38.888Z,10.35
2017-09-27T16:27:08.172Z,9.05
2017-09-27T16:29:37.448Z,9.82
2017-09-27T16:32:06.700Z,10.80
2017-09-27T16:34:35.951Z,10.25
2017-09-27T16:37:05.267Z,9.35
2017-09-27T16:39:34.579Z,10.15
2017-09-27T16:42:04.604Z,10.80
2017-09-27T16:44:34.639Z,9.77
2017-09-27T16:47:03.888Z,8.70
2017-09-27T16:49:33.135Z,10.45
2017-09-27T16:52:02.420Z,11.27
2017-09-27T16:54:32.441Z,11.80
2017-09-27T16:57:02.475Z,11.30
2017-09-27T16:59:31.727Z,9.50
2017-09-27T17:02:00.979Z,9.02
2017-09-27T17:04:30.833Z,7.85
2017-09-27T17:07:00.092Z,8.38
2017-09-27T17:09:29.334Z,8.27
2017-09-27T17:11:59.924Z,8.88
2017-09-27T17:14:29.200Z,9.65
2017-09-27T17:16:58.826Z,9.05
2017-09-27T17:19:34.033Z,8.93
2017-09-27T17:22:17.344Z,8.05
2017-09-27T17:24:46.696Z,8.80
2017-09-27T17:27:16.691Z,8.60
2017-09-27T17:29:45.962Z,8.45
2017-09-27T17:32:15.332Z,9.35
2017-09-27T17:34:46.539Z,8.57
2017-09-27T17:37:15.775Z,9.88
2017-09-27T17:39:46.053Z,9.60
2017-09-27T17:42:15.272Z,8.10
2017-09-27T17:44:44.534Z,9.65
2017-09-27T17:47:13.820Z,9.65
2017-09-27T17:49:43.097Z,9.50
2017-09-27T17:52:13.118Z,8.68
2017-09-27T17:54:43.159Z,9.50
2017-09-27T17:57:12.414Z,9.80
2017-09-27T17:59:41.665Z,9.73
2017-09-27T18:02:10.976Z,9.88
2017-09-27T18:04:48.783Z,9.60
2017-09-27T18:07:21.967Z,10.55
2017-09-27T18:09:56.678Z,9.77
2017-09-27T18:12:29.063Z,10.10
2017-09-27T18:15:10.100Z,10.52
2017-09-27T18:17:39.340Z,10.55
2017-09-27T18:20:08.606Z,11.40
2017-09-27T18:22:38.808Z,11.52
2017-09-27T18:25:08.148Z,11.05
2017-09-27T18:27:37.453Z,13.20
2017-09-27T18:30:06.752Z,12.85
2017-09-27T18:32:37.452Z,11.70
2017-09-27T18:35:12.564Z,11.20
2017-09-27T18:37:43.379Z,13.02
2017-09-27T18:40:12.802Z,12.52
2017-09-27T18:42:42.077Z,12.98
2017-09-27T18:45:12.133Z,11.65
2017-09-27T18:47:41.396Z,12.50
2017-09-27T18:50:10.661Z,11.60
2017-09-27T18:52:40.724Z,11.98
2017-09-27T18:55:09.992Z,11.70
2017-09-27T18:57:39.274Z,11.75
2017-09-27T19:00:09.339Z,12.65
2017-09-27T19:02:38.602Z,12.05
2017-09-27T19:05:07.887Z,12.57
2017-09-27T19:07:37.193Z,11.80
2017-09-27T19:10:06.467Z,12.23
2017-09-27T19:12:35.733Z,12.45
2017-09-27T19:15:05.004Z,13.57
2017-09-27T19:17:35.048Z,12.15
2017-09-27T19:20:04.361Z,13.00
2017-09-27T19:22:33.638Z,12.93
2017-09-27T19:25:02.941Z,14.90
2017-09-27T19:27:32.240Z,13.98
2017-09-27T19:30:01.521Z,14.05
2017-09-27T19:32:31.588Z,14.40
2017-09-27T19:35:00.881Z,13.55
2017-09-27T19:37:30.139Z,15.02
2017-09-27T19:39:59.609Z,14.15
2017-09-27T19:42:28.903Z,15.93
2017-09-27T19:44:58.158Z,15.18
2017-09-27T19:47:28.227Z,14.70
2017-09-27T19:49:57.511Z,13.45
2017-09-27T19:52:26.781Z,16.65
2017-09-27T19:54:56.364Z,14.77
2017-09-27T19:57:25.831Z,14.02
2017-09-27T19:59:55.136Z,14.70
2017-09-27T20:02:24.507Z,14.13
2017-09-27T20:04:54.581Z,14.32
2017-09-27T20:07:23.852Z,14.95
2017-09-27T20:09:53.159Z,15.45
2017-09-27T20:12:22.469Z,14.52
2017-09-27T20:14:51.737Z,14.32
2017-09-27T20:17:21.011Z,13.68
2017-09-27T20:19:50.316Z,13.77
2017-09-27T20:22:19.601Z,15.70
2017-09-27T20:24:49.653Z,15.27
2017-09-27T20:27:18.970Z,15.00
2017-09-27T20:29:48.233Z,15.73
2017-09-27T20:32:18.352Z,17.23
2017-09-27T20:34:48.373Z,15.80
2017-09-27T20:37:17.666Z,14.85
2017-09-27T20:39:48.548Z,14.07
2017-09-27T20:42:17.818Z,14.85
2017-09-27T20:44:47.096Z,15.73
2017-09-27T20:47:16.395Z,15.63
2017-09-27T20:49:46.441Z,15.55
2017-09-27T20:52:15.720Z,14.40
2017-09-27T20:54:45.066Z,16.15
2017-09-27T20:57:14.346Z,14.73
2017-09-27T20:59:43.689Z,17.58
2017-09-27T21:02:13.089Z,15.02
2017-09-27T21:04:43.113Z,15.43
2017-09-27T21:07:12.400Z,14.82
2017-09-27T21:09:41.738Z,16.98
2017-09-27T21:12:10.996Z,15.50
2017-09-27T21:14:40.263Z,15.07
2017-09-27T21:17:10.384Z,15.65
2017-09-27T21:19:39.643Z,14.10
2017-09-27T21:22:09.675Z,15.13
2017-09-27T21:24:38.967Z,15.55
2017-09-27T21:27:09.161Z,14.50
2017-09-27T21:29:38.615Z,14.90
2017-09-27T21:32:08.659Z,13.75
2017-09-27T21:34:38.676Z,13.48
2017-09-27T21:37:07.940Z,13.65
2017-09-27T21:39:37.208Z,13.70
2017-09-27T21:42:15.535Z,13.30
2017-09-27T21:44:44.826Z,15.30
2017-09-27T21:47:15.051Z,12.68
2017-09-27T21:49:44.352Z,12.68
2017-09-27T21:52:14.594Z,12.75
2017-09-27T21:54:43.864Z,12.65
2017-09-27T21:57:13.123Z,12.57
2017-09-27T21:59:42.597Z,12.35
2017-09-27T22:02:11.872Z,13.45
2017-09-27T22:04:41.136Z,14.02
2017-09-27T22:07:10.649Z,14.93
2017-09-27T22:09:39.915Z,12.82
2017-09-27T22:12:09.990Z,14.93
2017-09-27T22:14:41.423Z,15.88
2017-09-27T22:17:11.016Z,15.15
2017-09-27T22:19:40.317Z,14.50
2017-09-27T22:22:09.580Z,13.62
2017-09-27T22:24:38.864Z,14.82
2017-09-27T22:27:08.310Z,15.35
2017-09-27T22:29:38.336Z,13.98
2017-09-27T22:32:09.108Z,13.60
2017-09-27T22:34:38.380Z,15.55
2017-09-27T22:37:08.592Z,16.20
2017-09-27T22:39:37.922Z,15.60
2017-09-27T22:42:07.179Z,15.07
2017-09-27T22:44:37.228Z,13.65
2017-09-27T22:47:06.523Z,14.70
2017-09-27T22:49:35.845Z,13.82
2017-09-27T22:52:05.105Z,13.20
2017-09-27T22:54:35.192Z,13.68
2017-09-27T22:57:04.459Z,12.95
2017-09-27T22:59:33.736Z,13.13
2017-09-27T23:02:03.040Z,13.10
2017-09-27T23:04:32.343Z,13.30
2017-09-27T23:07:02.409Z,12.02
2017-09-27T23:09:31.692Z,12.02
2017-09-27T23:12:00.976Z,14.65
2017-09-27T23:14:30.251Z,14.32
2017-09-27T23:17:00.333Z,14.30
2017-09-27T23:19:29.677Z,12.80
2017-09-27T23:21:59.744Z,12.48
2017-09-27T23:24:29.070Z,12.35
2017-09-27T23:26:58.351Z,13.68
2017-09-27T23:29:27.612Z,13.88
2017-09-27T23:31:57.088Z,14.23
2017-09-27T23:34:27.212Z,13.35
2017-09-27T23:36:57.284Z,14.18
2017-09-27T23:39:26.561Z,15.68
2017-09-27T23:41:55.820Z,14.05
2017-09-27T23:44:25.364Z,13.60
2017-09-27T23:46:54.641Z,13.55
2017-09-27T23:49:24.871Z,13.93
2017-09-27T23:51:54.895Z,13.85
2017-09-27T23:54:24.961Z,13.93
2017-09-27T23:56:54.223Z,14.95
2017-09-27T23:59:23.484Z,14.23
